sensor_id;sensor_type;location;lat;lon;timestamp;P1;durP1;ratioP1;P2;durP2;ratioP2
69900;SDS011;57183;50.930;5.406;2023-07-13T00:01:04;2.72;;;0.80;;
69900;SDS011;57183;50.930;5.406;2023-07-13T00:03:31;4.30;;;1.00;;
69900;SDS011;57183;50.930;5.406;2023-07-13T00:06:00;1.85;;;0.70;;
69900;SDS011;57183;50.930;5.406;2023-07-13T00:08:26;2.08;;;0.70;;
69900;SDS011;57183;50.930;5.406;2023-07-13T00:10:55;1.58;;;0.70;;
69900;SDS011;57183;50.930;5.406;2023-07-13T00:13:20;4.35;;;0.70;;
69900;SDS011;57183;50.930;5.406;2023-07-13T00:15:46;2.28;;;0.75;;
69900;SDS011;57183;50.930;5.406;2023-07-13T00:18:12;5.70;;;0.90;;
69900;SDS011;57183;50.930;5.406;2023-07-13T00:20:38;2.13;;;0.80;;
69900;SDS011;57183;50.930;5.406;2023-07-13T00:23:06;2.88;;;0.90;;
69900;SDS011;57183;50.930;5.406;2023-07-13T00:25:32;4.90;;;0.60;;
69900;SDS011;57183;50.930;5.406;2023-07-13T00:27:58;3.08;;;0.70;;
69900;SDS011;57183;50.930;5.406;2023-07-13T00:30:24;2.28;;;1.00;;
69900;SDS011;57183;50.930;5.406;2023-07-13T00:32:50;5.30;;;0.80;;
69900;SDS011;57183;50.930;5.406;2023-07-13T00:35:16;7.93;;;1.08;;
69900;SDS011;57183;50.930;5.406;2023-07-13T00:37:42;2.80;;;0.63;;
69900;SDS011;57183;50.930;5.406;2023-07-13T00:40:09;5.03;;;0.65;;
69900;SDS011;57183;50.930;5.406;2023-07-13T00:42:36;2.78;;;0.80;;
69900;SDS011;57183;50.930;5.406;2023-07-13T00:45:07;3.67;;;1.00;;
69900;SDS011;57183;50.930;5.406;2023-07-13T00:47:53;1.05;;;0.60;;
69900;SDS011;57183;50.930;5.406;2023-07-13T00:50:20;1.80;;;0.70;;
69900;SDS011;57183;50.930;5.406;2023-07-13T00:52:48;2.60;;;0.82;;
69900;SDS011;57183;50.930;5.406;2023-07-13T00:55:17;1.90;;;0.77;;
69900;SDS011;57183;50.930;5.406;2023-07-13T00:57:44;5.55;;;1.02;;
69900;SDS011;57183;50.930;5.406;2023-07-13T01:00:09;2.03;;;0.85;;
69900;SDS011;57183;50.930;5.406;2023-07-13T01:02:37;2.28;;;0.70;;
69900;SDS011;57183;50.930;5.406;2023-07-13T01:05:11;3.88;;;0.75;;
69900;SDS011;57183;50.930;5.406;2023-07-13T01:07:41;1.85;;;0.90;;
69900;SDS011;57183;50.930;5.406;2023-07-13T01:10:09;8.52;;;1.50;;
69900;SDS011;57183;50.930;5.406;2023-07-13T01:12:36;3.00;;;0.80;;
69900;SDS011;57183;50.930;5.406;2023-07-13T01:15:02;1.70;;;0.80;;
69900;SDS011;57183;50.930;5.406;2023-07-13T01:17:29;3.38;;;0.98;;
69900;SDS011;57183;50.930;5.406;2023-07-13T01:19:56;3.33;;;1.08;;
69900;SDS011;57183;50.930;5.406;2023-07-13T01:22:22;4.00;;;1.20;;
69900;SDS011;57183;50.930;5.406;2023-07-13T01:24:51;6.28;;;1.90;;
69900;SDS011;57183;50.930;5.406;2023-07-13T01:27:22;4.18;;;1.33;;
69900;SDS011;57183;50.930;5.406;2023-07-13T01:29:50;5.10;;;1.65;;
69900;SDS011;57183;50.930;5.406;2023-07-13T01:32:18;4.15;;;1.23;;
69900;SDS011;57183;50.930;5.406;2023-07-13T01:34:49;6.15;;;1.40;;
69900;SDS011;57183;50.930;5.406;2023-07-13T01:37:15;4.93;;;1.00;;
69900;SDS011;57183;50.930;5.406;2023-07-13T01:39:42;4.82;;;1.25;;
69900;SDS011;57183;50.930;5.406;2023-07-13T01:42:07;6.60;;;1.55;;
69900;SDS011;57183;50.930;5.406;2023-07-13T01:44:33;2.45;;;0.82;;
69900;SDS011;57183;50.930;5.406;2023-07-13T01:46:59;3.83;;;1.48;;
69900;SDS011;57183;50.930;5.406;2023-07-13T01:49:25;6.63;;;1.63;;
69900;SDS011;57183;50.930;5.406;2023-07-13T01:51:51;4.20;;;1.05;;
69900;SDS011;57183;50.930;5.406;2023-07-13T01:54:16;2.25;;;1.10;;
69900;SDS011;57183;50.930;5.406;2023-07-13T01:56:42;3.10;;;0.80;;
69900;SDS011;57183;50.930;5.406;2023-07-13T01:59:08;4.32;;;1.50;;
69900;SDS011;57183;50.930;5.406;2023-07-13T02:01:34;4.90;;;1.20;;
69900;SDS011;57183;50.930;5.406;2023-07-13T02:04:00;5.10;;;1.98;;
69900;SDS011;57183;50.930;5.406;2023-07-13T02:06:25;4.40;;;1.38;;
69900;SDS011;57183;50.930;5.406;2023-07-13T02:08:51;3.65;;;1.35;;
69900;SDS011;57183;50.930;5.406;2023-07-13T02:11:17;4.63;;;1.20;;
69900;SDS011;57183;50.930;5.406;2023-07-13T02:13:42;2.17;;;1.23;;
69900;SDS011;57183;50.930;5.406;2023-07-13T02:16:08;5.30;;;1.52;;
69900;SDS011;57183;50.930;5.406;2023-07-13T02:18:34;5.22;;;1.40;;
69900;SDS011;57183;50.930;5.406;2023-07-13T02:21:00;6.65;;;1.60;;
69900;SDS011;57183;50.930;5.406;2023-07-13T02:23:25;3.15;;;1.23;;
69900;SDS011;57183;50.930;5.406;2023-07-13T02:25:55;7.53;;;1.25;;
69900;SDS011;57183;50.930;5.406;2023-07-13T02:28:21;2.80;;;1.17;;
69900;SDS011;57183;50.930;5.406;2023-07-13T02:30:47;6.85;;;1.27;;
69900;SDS011;57183;50.930;5.406;2023-07-13T02:33:12;5.47;;;1.10;;
69900;SDS011;57183;50.930;5.406;2023-07-13T02:35:38;4.72;;;1.48;;
69900;SDS011;57183;50.930;5.406;2023-07-13T02:38:03;4.07;;;1.33;;
69900;SDS011;57183;50.930;5.406;2023-07-13T02:40:29;2.80;;;1.27;;
69900;SDS011;57183;50.930;5.406;2023-07-13T02:42:58;2.88;;;1.20;;
69900;SDS011;57183;50.930;5.406;2023-07-13T02:45:24;3.17;;;1.08;;
69900;SDS011;57183;50.930;5.406;2023-07-13T02:47:49;4.10;;;1.35;;
69900;SDS011;57183;50.930;5.406;2023-07-13T02:50:15;3.63;;;1.50;;
69900;SDS011;57183;50.930;5.406;2023-07-13T02:52:41;7.28;;;1.83;;
69900;SDS011;57183;50.930;5.406;2023-07-13T02:55:06;6.15;;;1.55;;
69900;SDS011;57183;50.930;5.406;2023-07-13T02:57:32;2.90;;;0.98;;
69900;SDS011;57183;50.930;5.406;2023-07-13T02:59:59;4.82;;;1.58;;
69900;SDS011;57183;50.930;5.406;2023-07-13T03:02:25;4.63;;;1.30;;
69900;SDS011;57183;50.930;5.406;2023-07-13T03:04:53;9.38;;;2.67;;
69900;SDS011;57183;50.930;5.406;2023-07-13T03:07:20;4.65;;;1.50;;
69900;SDS011;57183;50.930;5.406;2023-07-13T03:09:46;4.43;;;1.27;;
69900;SDS011;57183;50.930;5.406;2023-07-13T03:12:11;6.20;;;1.70;;
69900;SDS011;57183;50.930;5.406;2023-07-13T03:14:37;2.05;;;1.23;;
69900;SDS011;57183;50.930;5.406;2023-07-13T03:17:03;3.08;;;1.60;;
69900;SDS011;57183;50.930;5.406;2023-07-13T03:19:28;3.85;;;1.65;;
69900;SDS011;57183;50.930;5.406;2023-07-13T03:21:54;4.68;;;1.50;;
69900;SDS011;57183;50.930;5.406;2023-07-13T03:24:20;3.00;;;1.08;;
69900;SDS011;57183;50.930;5.406;2023-07-13T03:26:48;5.32;;;1.55;;
69900;SDS011;57183;50.930;5.406;2023-07-13T03:29:14;2.80;;;1.10;;
69900;SDS011;57183;50.930;5.406;2023-07-13T03:31:39;7.28;;;1.35;;
69900;SDS011;57183;50.930;5.406;2023-07-13T03:34:05;4.53;;;1.40;;
69900;SDS011;57183;50.930;5.406;2023-07-13T03:36:31;7.40;;;1.67;;
69900;SDS011;57183;50.930;5.406;2023-07-13T03:38:58;8.35;;;1.60;;
69900;SDS011;57183;50.930;5.406;2023-07-13T03:41:26;5.18;;;2.40;;
69900;SDS011;57183;50.930;5.406;2023-07-13T03:43:52;9.55;;;1.50;;
69900;SDS011;57183;50.930;5.406;2023-07-13T03:46:18;4.90;;;1.85;;
69900;SDS011;57183;50.930;5.406;2023-07-13T03:48:44;4.82;;;1.55;;
69900;SDS011;57183;50.930;5.406;2023-07-13T03:51:12;4.20;;;1.65;;
69900;SDS011;57183;50.930;5.406;2023-07-13T03:53:42;3.67;;;1.63;;
69900;SDS011;57183;50.930;5.406;2023-07-13T03:56:10;9.32;;;1.58;;
69900;SDS011;57183;50.930;5.406;2023-07-13T03:58:39;9.13;;;1.38;;
69900;SDS011;57183;50.930;5.406;2023-07-13T04:01:07;6.43;;;2.03;;
69900;SDS011;57183;50.930;5.406;2023-07-13T04:03:34;4.50;;;1.63;;
69900;SDS011;57183;50.930;5.406;2023-07-13T04:06:01;6.95;;;2.50;;
69900;SDS011;57183;50.930;5.406;2023-07-13T04:08:32;4.03;;;1.90;;
69900;SDS011;57183;50.930;5.406;2023-07-13T04:11:00;5.60;;;1.67;;
69900;SDS011;57183;50.930;5.406;2023-07-13T04:13:27;7.85;;;2.72;;
69900;SDS011;57183;50.930;5.406;2023-07-13T04:15:53;3.70;;;1.52;;
69900;SDS011;57183;50.930;5.406;2023-07-13T04:18:19;2.88;;;1.83;;
69900;SDS011;57183;50.930;5.406;2023-07-13T04:20:48;4.82;;;1.73;;
69900;SDS011;57183;50.930;5.406;2023-07-13T04:23:15;4.75;;;2.55;;
69900;SDS011;57183;50.930;5.406;2023-07-13T04:25:48;6.40;;;2.17;;
69900;SDS011;57183;50.930;5.406;2023-07-13T04:28:18;8.85;;;1.65;;
69900;SDS011;57183;50.930;5.406;2023-07-13T04:30:47;7.75;;;1.98;;
69900;SDS011;57183;50.930;5.406;2023-07-13T04:33:14;2.65;;;1.73;;
69900;SDS011;57183;50.930;5.406;2023-07-13T04:35:41;7.90;;;2.42;;
69900;SDS011;57183;50.930;5.406;2023-07-13T04:38:08;6.43;;;1.65;;
69900;SDS011;57183;50.930;5.406;2023-07-13T04:40:36;3.25;;;1.30;;
69900;SDS011;57183;50.930;5.406;2023-07-13T04:43:02;5.80;;;1.75;;
69900;SDS011;57183;50.930;5.406;2023-07-13T04:45:27;4.63;;;1.40;;
69900;SDS011;57183;50.930;5.406;2023-07-13T04:47:53;7.40;;;1.90;;
69900;SDS011;57183;50.930;5.406;2023-07-13T04:50:19;6.18;;;2.22;;
69900;SDS011;57183;50.930;5.406;2023-07-13T04:52:48;5.05;;;1.70;;
69900;SDS011;57183;50.930;5.406;2023-07-13T04:55:18;5.78;;;1.70;;
69900;SDS011;57183;50.930;5.406;2023-07-13T04:57:44;7.60;;;2.05;;
69900;SDS011;57183;50.930;5.406;2023-07-13T05:00:11;3.90;;;1.70;;
69900;SDS011;57183;50.930;5.406;2023-07-13T05:02:38;3.35;;;1.48;;
69900;SDS011;57183;50.930;5.406;2023-07-13T05:05:04;3.60;;;1.20;;
69900;SDS011;57183;50.930;5.406;2023-07-13T05:07:31;3.50;;;1.80;;
69900;SDS011;57183;50.930;5.406;2023-07-13T05:09:58;7.18;;;1.42;;
69900;SDS011;57183;50.930;5.406;2023-07-13T05:12:25;3.15;;;1.52;;
69900;SDS011;57183;50.930;5.406;2023-07-13T05:14:51;3.17;;;1.50;;
69900;SDS011;57183;50.930;5.406;2023-07-13T05:17:17;5.20;;;1.05;;
69900;SDS011;57183;50.930;5.406;2023-07-13T05:19:42;6.20;;;1.58;;
69900;SDS011;57183;50.930;5.406;2023-07-13T05:22:08;4.00;;;1.38;;
69900;SDS011;57183;50.930;5.406;2023-07-13T05:24:34;5.63;;;1.63;;
69900;SDS011;57183;50.930;5.406;2023-07-13T05:26:59;3.92;;;1.45;;
69900;SDS011;57183;50.930;5.406;2023-07-13T05:29:25;4.82;;;1.20;;
69900;SDS011;57183;50.930;5.406;2023-07-13T05:31:50;8.07;;;1.52;;
69900;SDS011;57183;50.930;5.406;2023-07-13T05:34:16;6.05;;;1.80;;
69900;SDS011;57183;50.930;5.406;2023-07-13T05:36:42;2.42;;;1.35;;
69900;SDS011;57183;50.930;5.406;2023-07-13T05:39:08;4.88;;;1.73;;
69900;SDS011;57183;50.930;5.406;2023-07-13T05:41:35;5.68;;;1.35;;
69900;SDS011;57183;50.930;5.406;2023-07-13T05:44:01;2.97;;;1.15;;
69900;SDS011;57183;50.930;5.406;2023-07-13T05:46:26;5.03;;;1.50;;
69900;SDS011;57183;50.930;5.406;2023-07-13T05:48:52;5.25;;;1.63;;
69900;SDS011;57183;50.930;5.406;2023-07-13T05:51:18;3.92;;;1.80;;
69900;SDS011;57183;50.930;5.406;2023-07-13T05:53:43;8.35;;;2.08;;
69900;SDS011;57183;50.930;5.406;2023-07-13T05:56:09;5.63;;;1.52;;
69900;SDS011;57183;50.930;5.406;2023-07-13T05:58:35;8.15;;;2.30;;
69900;SDS011;57183;50.930;5.406;2023-07-13T06:01:02;14.50;;;2.65;;
69900;SDS011;57183;50.930;5.406;2023-07-13T06:03:30;10.48;;;1.92;;
69900;SDS011;57183;50.930;5.406;2023-07-13T06:05:56;4.78;;;1.60;;
69900;SDS011;57183;50.930;5.406;2023-07-13T06:08:22;11.50;;;2.60;;
69900;SDS011;57183;50.930;5.406;2023-07-13T06:10:48;7.25;;;2.13;;
69900;SDS011;57183;50.930;5.406;2023-07-13T06:13:13;6.47;;;1.77;;
69900;SDS011;57183;50.930;5.406;2023-07-13T06:15:39;5.47;;;1.80;;
69900;SDS011;57183;50.930;5.406;2023-07-13T06:18:04;7.47;;;2.10;;
69900;SDS011;57183;50.930;5.406;2023-07-13T06:20:30;7.25;;;1.63;;
69900;SDS011;57183;50.930;5.406;2023-07-13T06:23:00;5.43;;;1.75;;
69900;SDS011;57183;50.930;5.406;2023-07-13T06:25:26;8.45;;;2.30;;
69900;SDS011;57183;50.930;5.406;2023-07-13T06:27:52;10.52;;;2.53;;
69900;SDS011;57183;50.930;5.406;2023-07-13T06:30:18;6.50;;;1.70;;
69900;SDS011;57183;50.930;5.406;2023-07-13T06:32:43;6.28;;;1.83;;
69900;SDS011;57183;50.930;5.406;2023-07-13T06:35:09;7.82;;;1.50;;
69900;SDS011;57183;50.930;5.406;2023-07-13T06:37:37;3.50;;;1.33;;
69900;SDS011;57183;50.930;5.406;2023-07-13T06:40:03;6.00;;;2.20;;
69900;SDS011;57183;50.930;5.406;2023-07-13T06:42:29;6.68;;;2.53;;
69900;SDS011;57183;50.930;5.406;2023-07-13T06:44:54;9.45;;;3.28;;
69900;SDS011;57183;50.930;5.406;2023-07-13T06:47:20;8.35;;;1.90;;
69900;SDS011;57183;50.930;5.406;2023-07-13T06:49:46;9.60;;;2.90;;
69900;SDS011;57183;50.930;5.406;2023-07-13T06:52:11;6.63;;;1.73;;
69900;SDS011;57183;50.930;5.406;2023-07-13T06:54:37;6.68;;;2.15;;
69900;SDS011;57183;50.930;5.406;2023-07-13T06:57:03;5.38;;;1.80;;
69900;SDS011;57183;50.930;5.406;2023-07-13T06:59:28;11.85;;;1.95;;
69900;SDS011;57183;50.930;5.406;2023-07-13T07:01:54;5.95;;;2.55;;
69900;SDS011;57183;50.930;5.406;2023-07-13T07:04:20;7.47;;;1.80;;
69900;SDS011;57183;50.930;5.406;2023-07-13T07:06:45;10.25;;;2.50;;
69900;SDS011;57183;50.930;5.406;2023-07-13T07:09:11;7.45;;;1.90;;
69900;SDS011;57183;50.930;5.406;2023-07-13T07:11:37;10.07;;;1.88;;
69900;SDS011;57183;50.930;5.406;2023-07-13T07:14:02;12.10;;;2.08;;
69900;SDS011;57183;50.930;5.406;2023-07-13T07:16:28;7.68;;;1.75;;
69900;SDS011;57183;50.930;5.406;2023-07-13T07:18:53;7.07;;;1.77;;
69900;SDS011;57183;50.930;5.406;2023-07-13T07:21:19;5.88;;;1.55;;
69900;SDS011;57183;50.930;5.406;2023-07-13T07:23:47;6.50;;;1.88;;
69900;SDS011;57183;50.930;5.406;2023-07-13T07:26:13;7.45;;;1.70;;
69900;SDS011;57183;50.930;5.406;2023-07-13T07:28:39;7.03;;;2.13;;
69900;SDS011;57183;50.930;5.406;2023-07-13T07:31:05;7.43;;;2.17;;
69900;SDS011;57183;50.930;5.406;2023-07-13T07:33:32;3.47;;;1.60;;
69900;SDS011;57183;50.930;5.406;2023-07-13T07:35:58;6.13;;;2.20;;
69900;SDS011;57183;50.930;5.406;2023-07-13T07:38:24;5.38;;;2.00;;
69900;SDS011;57183;50.930;5.406;2023-07-13T07:40:49;6.82;;;2.10;;
69900;SDS011;57183;50.930;5.406;2023-07-13T07:43:15;6.95;;;1.90;;
69900;SDS011;57183;50.930;5.406;2023-07-13T07:45:41;6.03;;;1.88;;
69900;SDS011;57183;50.930;5.406;2023-07-13T07:48:06;6.60;;;1.88;;
69900;SDS011;57183;50.930;5.406;2023-07-13T07:50:34;6.57;;;1.65;;
69900;SDS011;57183;50.930;5.406;2023-07-13T07:53:01;4.93;;;3.13;;
69900;SDS011;57183;50.930;5.406;2023-07-13T07:55:27;5.28;;;1.83;;
69900;SDS011;57183;50.930;5.406;2023-07-13T07:57:52;4.93;;;1.52;;
69900;SDS011;57183;50.930;5.406;2023-07-13T08:00:18;4.53;;;1.58;;
69900;SDS011;57183;50.930;5.406;2023-07-13T08:02:44;7.53;;;1.83;;
69900;SDS011;57183;50.930;5.406;2023-07-13T08:05:10;4.40;;;1.75;;
69900;SDS011;57183;50.930;5.406;2023-07-13T08:07:37;7.97;;;1.98;;
69900;SDS011;57183;50.930;5.406;2023-07-13T08:10:04;5.90;;;1.83;;
69900;SDS011;57183;50.930;5.406;2023-07-13T08:12:33;3.35;;;1.17;;
69900;SDS011;57183;50.930;5.406;2023-07-13T08:15:00;9.35;;;1.98;;
69900;SDS011;57183;50.930;5.406;2023-07-13T08:17:26;8.45;;;2.60;;
69900;SDS011;57183;50.930;5.406;2023-07-13T08:19:52;7.55;;;2.00;;
69900;SDS011;57183;50.930;5.406;2023-07-13T08:22:18;7.75;;;2.13;;
69900;SDS011;57183;50.930;5.406;2023-07-13T08:24:43;6.57;;;1.92;;
69900;SDS011;57183;50.930;5.406;2023-07-13T08:27:10;4.47;;;1.77;;
69900;SDS011;57183;50.930;5.406;2023-07-13T08:29:36;6.38;;;1.63;;
69900;SDS011;57183;50.930;5.406;2023-07-13T08:32:02;5.97;;;1.40;;
69900;SDS011;57183;50.930;5.406;2023-07-13T08:34:29;5.43;;;1.83;;
69900;SDS011;57183;50.930;5.406;2023-07-13T08:36:55;6.60;;;1.80;;
69900;SDS011;57183;50.930;5.406;2023-07-13T08:39:21;5.88;;;1.55;;
69900;SDS011;57183;50.930;5.406;2023-07-13T08:41:50;5.65;;;1.60;;
69900;SDS011;57183;50.930;5.406;2023-07-13T08:44:48;8.18;;;1.60;;
69900;SDS011;57183;50.930;5.406;2023-07-13T08:47:27;8.57;;;1.65;;
69900;SDS011;57183;50.930;5.406;2023-07-13T08:49:56;4.78;;;1.30;;
69900;SDS011;57183;50.930;5.406;2023-07-13T08:52:31;3.38;;;1.52;;
69900;SDS011;57183;50.930;5.406;2023-07-13T08:55:02;4.75;;;1.50;;
69900;SDS011;57183;50.930;5.406;2023-07-13T08:57:34;7.50;;;1.88;;
69900;SDS011;57183;50.930;5.406;2023-07-13T09:00:01;4.32;;;1.40;;
69900;SDS011;57183;50.930;5.406;2023-07-13T09:05:22;3.92;;;1.45;;
69900;SDS011;57183;50.930;5.406;2023-07-13T09:10:53;6.47;;;1.50;;
69900;SDS011;57183;50.930;5.406;2023-07-13T09:13:40;10.57;;;1.90;;
69900;SDS011;57183;50.930;5.406;2023-07-13T09:16:16;5.97;;;1.70;;
69900;SDS011;57183;50.930;5.406;2023-07-13T09:18:47;3.85;;;1.40;;
69900;SDS011;57183;50.930;5.406;2023-07-13T09:21:17;4.65;;;1.05;;
69900;SDS011;57183;50.930;5.406;2023-07-13T09:23:50;3.83;;;1.60;;
69900;SDS011;57183;50.930;5.406;2023-07-13T09:26:21;7.07;;;2.10;;
69900;SDS011;57183;50.930;5.406;2023-07-13T09:28:50;5.15;;;1.30;;
69900;SDS011;57183;50.930;5.406;2023-07-13T09:31:20;4.47;;;1.38;;
69900;SDS011;57183;50.930;5.406;2023-07-13T09:33:51;7.30;;;1.17;;
69900;SDS011;57183;50.930;5.406;2023-07-13T09:36:32;5.45;;;1.13;;
69900;SDS011;57183;50.930;5.406;2023-07-13T09:41:53;2.50;;;1.13;;
69900;SDS011;57183;50.930;5.406;2023-07-13T09:45:08;2.47;;;1.27;;
69900;SDS011;57183;50.930;5.406;2023-07-13T09:47:18;3.80;;;1.33;;
69900;SDS011;57183;50.930;5.406;2023-07-13T09:49:48;3.40;;;0.95;;
69900;SDS011;57183;50.930;5.406;2023-07-13T09:52:20;3.78;;;1.42;;
69900;SDS011;57183;50.930;5.406;2023-07-13T09:54:48;3.17;;;1.70;;
69900;SDS011;57183;50.930;5.406;2023-07-13T09:57:16;3.35;;;1.25;;
69900;SDS011;57183;50.930;5.406;2023-07-13T09:59:45;2.95;;;1.30;;
69900;SDS011;57183;50.930;5.406;2023-07-13T10:02:23;10.90;;;1.15;;
69900;SDS011;57183;50.930;5.406;2023-07-13T10:05:05;2.53;;;1.40;;
69900;SDS011;57183;50.930;5.406;2023-07-13T10:07:39;6.35;;;1.50;;
69900;SDS011;57183;50.930;5.406;2023-07-13T10:10:13;2.13;;;0.90;;
69900;SDS011;57183;50.930;5.406;2023-07-13T10:12:41;2.47;;;0.98;;
69900;SDS011;57183;50.930;5.406;2023-07-13T10:15:07;3.20;;;1.30;;
69900;SDS011;57183;50.930;5.406;2023-07-13T10:17:40;3.13;;;1.15;;
69900;SDS011;57183;50.930;5.406;2023-07-13T10:20:06;2.92;;;0.82;;
69900;SDS011;57183;50.930;5.406;2023-07-13T10:22:39;2.42;;;1.02;;
69900;SDS011;57183;50.930;5.406;2023-07-13T10:25:18;2.33;;;0.90;;
69900;SDS011;57183;50.930;5.406;2023-07-13T10:27:47;3.13;;;1.00;;
69900;SDS011;57183;50.930;5.406;2023-07-13T10:30:20;4.00;;;0.77;;
69900;SDS011;57183;50.930;5.406;2023-07-13T10:32:50;1.05;;;0.93;;
69900;SDS011;57183;50.930;5.406;2023-07-13T10:35:18;3.85;;;1.15;;
69900;SDS011;57183;50.930;5.406;2023-07-13T10:37:55;3.83;;;0.90;;
69900;SDS011;57183;50.930;5.406;2023-07-13T10:40:23;4.18;;;0.88;;
69900;SDS011;57183;50.930;5.406;2023-07-13T10:43:14;6.28;;;1.23;;
69900;SDS011;57183;50.930;5.406;2023-07-13T10:45:51;4.22;;;0.88;;
69900;SDS011;57183;50.930;5.406;2023-07-13T10:48:19;5.00;;;1.10;;
69900;SDS011;57183;50.930;5.406;2023-07-13T10:50:48;2.03;;;0.98;;
69900;SDS011;57183;50.930;5.406;2023-07-13T10:53:20;5.85;;;1.10;;
69900;SDS011;57183;50.930;5.406;2023-07-13T10:56:00;2.53;;;0.70;;
69900;SDS011;57183;50.930;5.406;2023-07-13T10:58:37;2.00;;;1.33;;
69900;SDS011;57183;50.930;5.406;2023-07-13T11:01:11;2.35;;;1.42;;
69900;SDS011;57183;50.930;5.406;2023-07-13T11:09:03;3.20;;;0.80;;
69900;SDS011;57183;50.930;5.406;2023-07-13T11:22:44;2.22;;;0.80;;
69900;SDS011;57183;50.930;5.406;2023-07-13T11:25:25;5.20;;;0.90;;
69900;SDS011;57183;50.930;5.406;2023-07-13T11:33:16;2.80;;;0.70;;
69900;SDS011;57183;50.930;5.406;2023-07-13T11:43:32;2.47;;;0.75;;
69900;SDS011;57183;50.930;5.406;2023-07-13T11:46:11;2.63;;;1.10;;
69900;SDS011;57183;50.930;5.406;2023-07-13T11:48:41;4.25;;;1.20;;
69900;SDS011;57183;50.930;5.406;2023-07-13T11:51:11;2.35;;;0.90;;
69900;SDS011;57183;50.930;5.406;2023-07-13T11:53:48;4.35;;;0.90;;
69900;SDS011;57183;50.930;5.406;2023-07-13T11:56:15;3.00;;;1.13;;
69900;SDS011;57183;50.930;5.406;2023-07-13T11:58:41;3.25;;;0.90;;
69900;SDS011;57183;50.930;5.406;2023-07-13T12:01:15;0.90;;;0.65;;
69900;SDS011;57183;50.930;5.406;2023-07-13T12:03:57;1.65;;;0.70;;
69900;SDS011;57183;50.930;5.406;2023-07-13T12:06:29;1.50;;;0.70;;
69900;SDS011;57183;50.930;5.406;2023-07-13T12:08:57;2.28;;;1.08;;
69900;SDS011;57183;50.930;5.406;2023-07-13T12:11:28;1.75;;;0.77;;
69900;SDS011;57183;50.930;5.406;2023-07-13T12:13:54;4.25;;;0.80;;
69900;SDS011;57183;50.930;5.406;2023-07-13T12:18:53;0.93;;;0.70;;
69900;SDS011;57183;50.930;5.406;2023-07-13T12:21:22;1.90;;;0.80;;
69900;SDS011;57183;50.930;5.406;2023-07-13T12:26:21;1.60;;;0.70;;
69900;SDS011;57183;50.930;5.406;2023-07-13T12:28:52;2.90;;;0.85;;
69900;SDS011;57183;50.930;5.406;2023-07-13T12:31:39;2.10;;;0.68;;
69900;SDS011;57183;50.930;5.406;2023-07-13T12:34:13;4.25;;;0.90;;
69900;SDS011;57183;50.930;5.406;2023-07-13T12:36:40;2.22;;;0.60;;
69900;SDS011;57183;50.930;5.406;2023-07-13T12:39:25;2.63;;;0.60;;
69900;SDS011;57183;50.930;5.406;2023-07-13T12:42:10;1.63;;;0.80;;
69900;SDS011;57183;50.930;5.406;2023-07-13T12:45:30;2.22;;;0.70;;
69900;SDS011;57183;50.930;5.406;2023-07-13T12:47:57;2.10;;;0.77;;
69900;SDS011;57183;50.930;5.406;2023-07-13T12:50:28;2.50;;;0.82;;
69900;SDS011;57183;50.930;5.406;2023-07-13T12:52:59;1.85;;;0.82;;
69900;SDS011;57183;50.930;5.406;2023-07-13T12:55:29;3.03;;;0.77;;
69900;SDS011;57183;50.930;5.406;2023-07-13T12:57:59;1.95;;;0.75;;
69900;SDS011;57183;50.930;5.406;2023-07-13T13:00:29;2.35;;;0.60;;
69900;SDS011;57183;50.930;5.406;2023-07-13T13:02:58;1.60;;;0.80;;
69900;SDS011;57183;50.930;5.406;2023-07-13T13:05:29;1.33;;;0.70;;
69900;SDS011;57183;50.930;5.406;2023-07-13T13:07:57;2.38;;;0.80;;
69900;SDS011;57183;50.930;5.406;2023-07-13T13:10:23;2.05;;;0.60;;
69900;SDS011;57183;50.930;5.406;2023-07-13T13:12:50;0.98;;;0.50;;
69900;SDS011;57183;50.930;5.406;2023-07-13T13:15:15;1.25;;;0.70;;
69900;SDS011;57183;50.930;5.406;2023-07-13T13:17:41;0.80;;;0.47;;
69900;SDS011;57183;50.930;5.406;2023-07-13T13:20:18;2.38;;;0.60;;
69900;SDS011;57183;50.930;5.406;2023-07-13T13:22:45;2.83;;;0.70;;
69900;SDS011;57183;50.930;5.406;2023-07-13T13:25:11;3.40;;;1.02;;
69900;SDS011;57183;50.930;5.406;2023-07-13T13:27:37;3.55;;;0.70;;
69900;SDS011;57183;50.930;5.406;2023-07-13T13:30:16;3.70;;;0.90;;
69900;SDS011;57183;50.930;5.406;2023-07-13T13:32:43;0.73;;;0.60;;
69900;SDS011;57183;50.930;5.406;2023-07-13T13:35:15;3.22;;;0.77;;
69900;SDS011;57183;50.930;5.406;2023-07-13T13:37:43;2.85;;;0.70;;
69900;SDS011;57183;50.930;5.406;2023-07-13T13:40:16;2.58;;;0.82;;
69900;SDS011;57183;50.930;5.406;2023-07-13T13:42:43;2.22;;;0.85;;
69900;SDS011;57183;50.930;5.406;2023-07-13T13:45:09;1.60;;;1.00;;
69900;SDS011;57183;50.930;5.406;2023-07-13T13:47:35;1.05;;;0.70;;
69900;SDS011;57183;50.930;5.406;2023-07-13T13:50:07;1.55;;;0.60;;
69900;SDS011;57183;50.930;5.406;2023-07-13T13:52:40;3.95;;;2.45;;
69900;SDS011;57183;50.930;5.406;2023-07-13T13:55:15;1.10;;;0.75;;
69900;SDS011;57183;50.930;5.406;2023-07-13T13:57:46;1.65;;;0.77;;
69900;SDS011;57183;50.930;5.406;2023-07-13T14:00:13;2.95;;;0.70;;
69900;SDS011;57183;50.930;5.406;2023-07-13T14:02:42;1.63;;;0.95;;
69900;SDS011;57183;50.930;5.406;2023-07-13T14:05:16;1.48;;;0.85;;
69900;SDS011;57183;50.930;5.406;2023-07-13T14:07:48;1.13;;;0.70;;
69900;SDS011;57183;50.930;5.406;2023-07-13T14:10:16;1.17;;;0.70;;
69900;SDS011;57183;50.930;5.406;2023-07-13T14:12:43;1.90;;;0.95;;
69900;SDS011;57183;50.930;5.406;2023-07-13T14:15:18;3.90;;;1.00;;
69900;SDS011;57183;50.930;5.406;2023-07-13T14:17:50;2.30;;;0.68;;
69900;SDS011;57183;50.930;5.406;2023-07-13T14:20:17;1.08;;;0.80;;
69900;SDS011;57183;50.930;5.406;2023-07-13T14:22:43;1.60;;;0.52;;
69900;SDS011;57183;50.930;5.406;2023-07-13T14:25:13;4.05;;;0.68;;
69900;SDS011;57183;50.930;5.406;2023-07-13T14:27:40;2.17;;;0.73;;
69900;SDS011;57183;50.930;5.406;2023-07-13T14:32:39;3.13;;;0.75;;
69900;SDS011;57183;50.930;5.406;2023-07-13T14:35:05;1.90;;;0.85;;
69900;SDS011;57183;50.930;5.406;2023-07-13T14:37:32;3.72;;;1.02;;
69900;SDS011;57183;50.930;5.406;2023-07-13T14:39:58;2.17;;;1.50;;
69900;SDS011;57183;50.930;5.406;2023-07-13T14:42:23;2.53;;;1.00;;
69900;SDS011;57183;50.930;5.406;2023-07-13T14:44:49;4.03;;;1.27;;
69900;SDS011;57183;50.930;5.406;2023-07-13T14:47:15;1.45;;;0.70;;
69900;SDS011;57183;50.930;5.406;2023-07-13T14:49:43;1.40;;;0.77;;
69900;SDS011;57183;50.930;5.406;2023-07-13T14:54:41;3.53;;;0.95;;
69900;SDS011;57183;50.930;5.406;2023-07-13T14:57:12;3.05;;;1.00;;
69900;SDS011;57183;50.930;5.406;2023-07-13T14:59:40;3.13;;;0.70;;
69900;SDS011;57183;50.930;5.406;2023-07-13T15:02:28;6.40;;;0.80;;
69900;SDS011;57183;50.930;5.406;2023-07-13T15:04:56;1.35;;;0.63;;
69900;SDS011;57183;50.930;5.406;2023-07-13T15:07:23;1.73;;;0.77;;
69900;SDS011;57183;50.930;5.406;2023-07-13T15:09:49;5.85;;;0.75;;
69900;SDS011;57183;50.930;5.406;2023-07-13T15:12:16;1.00;;;0.70;;
69900;SDS011;57183;50.930;5.406;2023-07-13T15:14:41;1.38;;;0.60;;
69900;SDS011;57183;50.930;5.406;2023-07-13T15:17:17;8.60;;;1.75;;
69900;SDS011;57183;50.930;5.406;2023-07-13T15:22:57;2.45;;;0.65;;
69900;SDS011;57183;50.930;5.406;2023-07-13T15:25:24;1.85;;;0.77;;
69900;SDS011;57183;50.930;5.406;2023-07-13T15:27:52;1.92;;;0.70;;
69900;SDS011;57183;50.930;5.406;2023-07-13T15:30:19;1.38;;;0.73;;
69900;SDS011;57183;50.930;5.406;2023-07-13T15:32:45;1.75;;;0.63;;
69900;SDS011;57183;50.930;5.406;2023-07-13T15:35:20;1.58;;;0.85;;
69900;SDS011;57183;50.930;5.406;2023-07-13T15:37:50;1.55;;;0.57;;
69900;SDS011;57183;50.930;5.406;2023-07-13T15:40:16;1.13;;;0.60;;
69900;SDS011;57183;50.930;5.406;2023-07-13T15:42:42;1.33;;;0.75;;
69900;SDS011;57183;50.930;5.406;2023-07-13T15:45:17;1.90;;;1.05;;
69900;SDS011;57183;50.930;5.406;2023-07-13T15:47:45;1.10;;;0.80;;